Time;durP1;ratioP1;P1;durP2;ratioP2;P2;SDS_P1;SDS_P2;PMS_P1;PMS_P2;Temp;Humidity;BMP_temperature;BMP_pressure;BME280_temperature;BME280_humidity;BME280_pressure;Samples;Min_cycle;Max_cycle;Signal;HPM_P1;HPM_P2
2022/11/10 00:02:14;;;;;;;16.83;7.68;;;;;;;8.39;100.00;96208.50;5067994;28;20494;-68
2022/11/10 00:04:40;;;;;;;9.57;7.43;;;;;;;8.40;100.00;96204.91;5068789;28;20048;-68
2022/11/10 00:07:05;;;;;;;9.65;6.57;;;;;;;8.29;100.00;96200.47;5068027;28;20021;-68
2022/11/10 00:09:30;;;;;;;7.88;6.93;;;;;;;8.18;100.00;96209.16;5068201;28;20082;-68
2022/11/10 00:11:56;;;;;;;8.32;6.68;;;;;;;8.12;100.00;96207.81;5050232;28;20040;-67
2022/11/10 00:17:05;;;;;;;8.32;6.03;;;;;;;7.98;100.00;96203.59;5068478;28;20039;-62
2022/11/10 00:19:31;;;;;;;8.05;6.30;;;;;;;7.94;100.00;96207.38;5068260;28;20029;-59
2022/11/10 00:21:57;;;;;;;6.35;5.85;;;;;;;7.92;100.00;96211.91;5068631;28;20068;-58
2022/11/10 00:24:23;;;;;;;8.68;6.63;;;;;;;7.93;100.00;96210.13;5067866;28;20064;-58
2022/11/10 00:26:49;;;;;;;7.45;6.75;;;;;;;7.88;100.00;96205.22;5046057;28;20039;-59
2022/11/10 00:29:15;;;;;;;9.05;6.57;;;;;;;7.87;100.00;96211.41;5068492;28;20040;-58
2022/11/10 00:31:40;;;;;;;7.80;5.95;;;;;;;7.83;100.00;96207.31;5068568;28;20032;-59
2022/11/10 00:34:10;;;;;;;6.68;5.90;;;;;;;7.79;100.00;96203.25;5072261;28;20033;-68
2022/11/10 00:36:35;;;;;;;7.80;6.07;;;;;;;7.80;100.00;96210.19;5071805;28;20032;-59
2022/11/10 00:39:00;;;;;;;6.57;5.97;;;;;;;7.81;100.00;96212.69;5051751;28;20585;-61
2022/11/10 00:41:26;;;;;;;9.38;5.82;;;;;;;7.81;100.00;96224.94;5059085;28;20527;-62
2022/11/10 00:43:52;;;;;;;7.75;5.68;;;;;;;7.81;100.00;96219.72;5060938;28;20060;-62
2022/11/10 00:46:17;;;;;;;10.07;5.55;;;;;;;7.75;100.00;96218.41;5071506;28;20043;-62
2022/11/10 00:48:42;;;;;;;5.05;4.65;;;;;;;7.70;100.00;96221.34;5071596;28;20032;-62
2022/11/10 00:51:21;;;;;;;8.57;5.43;;;;;;;7.64;100.00;96226.19;5071748;28;20041;-62
2022/11/10 00:53:47;;;;;;;8.32;5.60;;;;;;;7.60;100.00;96228.19;5071490;28;20473;-55
2022/11/10 00:56:12;;;;;;;6.95;5.90;;;;;;;7.54;100.00;96228.63;5054028;28;20037;-58
2022/11/10 00:58:38;;;;;;;6.38;5.72;;;;;;;7.50;100.00;96225.38;5068589;28;20047;-63
2022/11/10 01:01:04;;;;;;;6.05;5.50;;;;;;;7.47;100.00;96230.03;5071667;28;20067;-62
2022/11/10 01:03:30;;;;;;;6.97;5.82;;;;;;;7.44;100.00;96229.28;5071338;28;20452;-62
2022/11/10 01:05:55;;;;;;;8.05;5.75;;;;;;;7.43;100.00;96234.63;5071474;28;20033;-62
2022/11/10 01:08:21;;;;;;;9.23;5.75;;;;;;;7.40;100.00;96235.69;5071905;28;20046;-62
2022/11/10 01:10:46;;;;;;;6.10;5.57;;;;;;;7.34;100.00;96236.13;5071586;28;20033;-62
2022/11/10 01:13:12;;;;;;;7.05;6.43;;;;;;;7.35;100.00;96243.03;5071465;28;20093;-62
2022/11/10 01:15:38;;;;;;;6.60;5.95;;;;;;;7.36;100.00;96249.13;5071871;28;20494;-63
2022/11/10 01:18:04;;;;;;;5.97;5.47;;;;;;;7.30;100.00;96239.91;5070981;28;20067;-63
2022/11/10 01:20:32;;;;;;;5.75;5.32;;;;;;;7.26;100.00;96249.75;5070885;28;20024;-63
2022/11/10 01:22:57;;;;;;;8.88;6.13;;;;;;;7.26;100.00;96251.53;5003990;28;20500;-62
2022/11/10 01:25:23;;;;;;;6.90;6.30;;;;;;;7.26;100.00;96254.16;5071608;28;20028;-62
2022/11/10 01:27:49;;;;;;;7.90;7.10;;;;;;;7.27;100.00;96263.69;5070631;28;20021;-62
2022/11/10 01:30:15;;;;;;;8.18;6.05;;;;;;;7.25;100.00;96262.97;5071492;28;20198;-62
2022/11/10 01:32:41;;;;;;;6.45;5.72;;;;;;;7.23;100.00;96270.91;5071008;28;20115;-59
2022/11/10 01:35:07;;;;;;;8.73;6.85;;;;;;;7.19;100.00;96264.22;5071244;28;20486;-61
2022/11/10 01:37:32;;;;;;;6.05;5.43;;;;;;;7.21;100.00;96269.38;5070855;28;20032;-55
2022/11/10 01:39:58;;;;;;;8.38;6.45;;;;;;;7.19;100.00;96263.41;5071409;28;20481;-56
2022/11/10 01:42:44;;;;;;;11.05;6.78;;;;;;;7.14;100.00;96259.31;5068786;28;20031;-54
2022/11/10 01:45:22;;;;;;;13.43;7.45;;;;;;;7.13;100.00;96264.66;5070883;28;20086;-55
2022/11/10 01:47:57;;;;;;;11.07;6.78;;;;;;;7.14;100.00;96266.34;5066834;28;20068;-54
2022/11/10 01:50:24;;;;;;;25.45;5.88;;;;;;;7.09;100.00;96268.44;5070446;28;20111;-55
2022/11/10 01:52:53;;;;;;;7.45;6.65;;;;;;;7.06;100.00;96266.88;5070829;28;20029;-67
2022/11/10 01:55:19;;;;;;;23.95;5.97;;;;;;;6.99;100.00;96273.47;5070864;28;20095;-68
2022/11/10 01:57:45;;;;;;;12.80;6.55;;;;;;;6.91;100.00;96270.53;5070639;28;20405;-68
2022/11/10 02:00:11;;;;;;;9.88;5.63;;;;;;;6.87;100.00;96270.75;5069039;28;20040;-69
2022/11/10 02:03:02;;;;;;;5.72;5.22;;;;;;;6.81;100.00;96276.41;5069454;28;20098;-69
2022/11/10 02:05:28;;;;;;;8.00;5.03;;;;;;;6.72;100.00;96269.16;5070898;28;20036;-68
2022/11/10 02:07:55;;;;;;;4.95;4.45;;;;;;;6.65;100.00;96270.53;5070378;28;20403;-68
2022/11/10 02:10:21;;;;;;;11.00;5.43;;;;;;;6.62;100.00;96268.94;5052560;28;20047;-63
2022/11/10 02:12:48;;;;;;;6.55;5.10;;;;;;;6.57;100.00;96264.03;5070494;28;20040;-54
2022/11/10 02:15:16;;;;;;;7.00;5.00;;;;;;;6.50;100.00;96267.97;5070286;28;20502;-55
2022/11/10 02:17:43;;;;;;;6.35;4.50;;;;;;;6.44;100.00;96269.25;5069289;28;20039;-54
2022/11/10 02:20:10;;;;;;;6.50;5.32;;;;;;;6.41;100.00;96266.84;5070328;28;20036;-55
2022/11/10 02:22:36;;;;;;;5.07;4.57;;;;;;;6.41;100.00;96277.31;5069363;28;20060;-54
2022/11/10 02:25:03;;;;;;;11.02;4.80;;;;;;;6.50;100.00;96275.00;5070418;28;20048;-57
2022/11/10 02:27:29;;;;;;;5.10;4.25;;;;;;;6.50;100.00;96281.06;5069387;28;20035;-57
2022/11/10 02:29:55;;;;;;;5.32;4.82;;;;;;;6.53;100.00;96278.28;5070382;28;20044;-60
2022/11/10 02:32:20;;;;;;;5.90;4.55;;;;;;;6.54;100.00;96274.72;5052315;28;20083;-68
2022/11/10 02:34:45;;;;;;;6.40;4.60;;;;;;;6.51;100.00;96280.13;5069369;28;20057;-61
2022/11/10 02:37:11;;;;;;;6.00;4.50;;;;;;;6.49;100.00;96281.19;5069438;28;20468;-62
2022/11/10 02:39:36;;;;;;;4.70;4.40;;;;;;;6.49;100.00;96283.78;5069342;28;20029;-62
2022/11/10 02:42:03;;;;;;;7.82;4.70;;;;;;;6.48;100.00;96296.03;5069318;28;20060;-62
2022/11/10 02:44:28;;;;;;;8.82;4.97;;;;;;;6.50;100.00;96303.78;5070662;28;20036;-62
2022/11/10 02:46:54;;;;;;;18.17;4.70;;;;;;;6.48;100.00;96298.63;5050607;28;20034;-61
2022/11/10 02:49:19;;;;;;;59.15;5.15;;;;;;;6.41;100.00;96302.63;5062615;28;20413;-55
2022/11/10 02:51:44;;;;;;;21.05;4.80;;;;;;;6.39;100.00;96305.31;5068636;28;20052;-68
2022/11/10 02:54:10;;;;;;;14.43;4.40;;;;;;;6.40;100.00;96308.78;5066398;28;20127;-61
2022/11/10 02:56:35;;;;;;;5.60;5.10;;;;;;;6.43;100.00;96311.19;5005915;28;20039;-61
2022/11/10 02:59:02;;;;;;;5.25;4.85;;;;;;;6.45;100.00;96311.94;5057917;28;20398;-60
2022/11/10 03:01:27;;;;;;;5.13;4.78;;;;;;;6.50;100.00;96301.16;5069287;28;20152;-60
2022/11/10 03:03:53;;;;;;;4.90;4.50;;;;;;;6.52;100.00;96300.13;5069405;28;20441;-61
2022/11/10 03:06:18;;;;;;;3.80;3.60;;;;;;;6.53;100.00;96299.19;5069533;28;20119;-61
2022/11/10 03:08:44;;;;;;;4.20;3.88;;;;;;;6.51;100.00;96301.03;5068680;28;20040;-60
2022/11/10 03:11:09;;;;;;;4.63;4.25;;;;;;;6.52;100.00;96308.00;5068819;28;20036;-69
2022/11/10 03:13:34;;;;;;;4.70;4.30;;;;;;;6.54;100.00;96305.25;5068967;28;20047;-54
2022/11/10 03:16:00;;;;;;;4.30;3.95;;;;;;;6.51;100.00;96316.75;5069296;28;20063;-55
2022/11/10 03:18:25;;;;;;;4.22;3.67;;;;;;;6.51;100.00;96318.53;5051267;28;20067;-54
2022/11/10 03:20:51;;;;;;;4.63;3.50;;;;;;;6.47;100.00;96325.75;5068876;28;20043;-56
2022/11/10 03:23:17;;;;;;;7.15;3.75;;;;;;;6.45;100.00;96322.38;5069065;28;20050;-55
2022/11/10 03:25:43;;;;;;;4.50;4.00;;;;;;;6.45;100.00;96328.47;5050847;28;20036;-54
2022/11/10 03:28:09;;;;;;;3.83;3.35;;;;;;;6.43;100.00;96329.50;5061796;28;20025;-63
2022/11/10 03:30:34;;;;;;;3.35;3.13;;;;;;;6.40;100.00;96330.53;5038855;28;20044;-61
2022/11/10 03:32:59;;;;;;;4.03;3.10;;;;;;;6.39;100.00;96336.69;5068750;28;20478;-53
2022/11/10 03:35:25;;;;;;;3.53;3.33;;;;;;;6.39;100.00;96331.47;5069183;28;20039;-57
2022/11/10 03:37:50;;;;;;;3.28;2.97;;;;;;;6.37;100.00;96329.91;5068283;28;20122;-55
2022/11/10 03:40:16;;;;;;;4.88;3.25;;;;;;;6.35;100.00;96332.63;5068840;28;20114;-56
2022/11/10 03:42:42;;;;;;;3.67;3.40;;;;;;;6.37;100.00;96335.16;5067941;28;20170;-53
2022/11/10 03:45:10;;;;;;;2.70;2.60;;;;;;;6.37;100.00;96335.97;5068710;28;20086;-55
2022/11/10 03:47:35;;;;;;;3.92;3.45;;;;;;;6.38;100.00;96344.66;5068406;28;20028;-63
2022/11/10 03:50:00;;;;;;;3.65;3.35;;;;;;;6.39;100.00;96338.50;5068503;28;20040;-63
2022/11/10 03:52:26;;;;;;;3.08;2.78;;;;;;;6.38;100.00;96337.63;5068921;28;20075;-60
2022/11/10 03:54:51;;;;;;;3.30;3.10;;;;;;;6.37;100.00;96346.44;5068417;28;20766;-60
2022/11/10 03:57:16;;;;;;;4.38;3.00;;;;;;;6.36;100.00;96341.31;5068667;28;20055;-60
2022/11/10 03:59:42;;;;;;;3.22;3.03;;;;;;;6.32;100.00;96348.50;5068503;28;20405;-60
2022/11/10 04:02:07;;;;;;;3.22;3.03;;;;;;;6.33;100.00;96349.38;5068719;28;20047;-61
2022/11/10 04:10:00;;;;;;;4.93;3.03;;;;;;;6.36;100.00;96349.16;5073076;28;20039;-58
2022/11/10 04:18:19;;;;;;;3.08;2.67;;;;;;;6.47;100.00;96349.28;5072049;28;20424;-58
2022/11/10 04:20:40;;;;;;;3.13;2.88;;;;;;;6.54;100.00;96358.44;5072326;28;20044;-59
2022/11/10 04:28:33;;;;;;;3.45;2.95;;;;;;;6.55;100.00;96360.09;5072482;28;20086;-57
2022/11/10 04:30:58;;;;;;;2.80;2.60;;;;;;;6.53;100.00;96359.38;5072172;28;20502;-68
2022/11/10 04:33:23;;;;;;;2.90;2.70;;;;;;;6.53;100.00;96361.97;5041742;28;20029;-68
2022/11/10 04:35:49;;;;;;;3.47;2.83;;;;;;;6.52;100.00;96367.31;5072322;28;20032;-68
2022/11/10 04:38:14;;;;;;;3.33;3.13;;;;;;;6.51;100.00;96358.59;5071850;28;20089;-68
2022/11/10 04:40:39;;;;;;;2.67;2.47;;;;;;;6.50;100.00;96367.38;5071644;28;20120;-68
2022/11/10 04:43:05;;;;;;;3.92;2.70;;;;;;;6.51;100.00;96366.44;5072129;28;20181;-68
2022/11/10 04:45:32;;;;;;;2.85;2.67;;;;;;;6.54;100.00;96368.91;5072187;28;20108;-62
2022/11/10 04:47:57;;;;;;;4.70;2.70;;;;;;;6.52;100.00;96378.63;5071744;28;20059;-59
2022/11/10 04:50:22;;;;;;;4.45;2.95;;;;;;;6.49;100.00;96367.50;5070979;28;20036;-60
2022/11/10 04:52:48;;;;;;;3.00;2.80;;;;;;;6.48;100.00;96369.28;5072292;28;20028;-60
2022/11/10 04:55:13;;;;;;;2.83;2.63;;;;;;;6.48;100.00;96374.50;5071477;28;20382;-60
2022/11/10 04:57:39;;;;;;;2.85;2.65;;;;;;;6.50;100.00;96367.38;5072050;28;20029;-60
2022/11/10 05:00:06;;;;;;;2.50;2.30;;;;;;;6.53;100.00;96380.28;5071461;28;20032;-61
2022/11/10 05:02:32;;;;;;;2.38;2.28;;;;;;;6.56;100.00;96379.25;5072072;28;20029;-60
2022/11/10 05:04:57;;;;;;;4.53;2.30;;;;;;;6.56;100.00;96371.38;5071536;28;20063;-61
2022/11/10 05:07:22;;;;;;;2.38;2.17;;;;;;;6.61;100.00;96376.34;5070791;28;20071;-58
2022/11/10 05:09:48;;;;;;;2.30;2.17;;;;;;;6.64;100.00;96368.28;5071258;28;20041;-58
2022/11/10 05:12:13;;;;;;;2.17;2.00;;;;;;;6.62;100.00;96380.63;5071576;28;20041;-58
2022/11/10 05:14:38;;;;;;;2.40;2.30;;;;;;;6.57;100.00;96387.00;5071045;28;20055;-58
2022/11/10 05:17:04;;;;;;;5.00;2.38;;;;;;;6.56;100.00;96382.72;5070995;28;20045;-59
2022/11/10 05:19:29;;;;;;;5.35;2.80;;;;;;;6.52;100.00;96385.63;5070494;28;20035;-59
2022/11/10 05:21:54;;;;;;;3.13;2.90;;;;;;;6.46;100.00;96394.69;5070537;28;20056;-59
2022/11/10 05:24:20;;;;;;;3.67;3.38;;;;;;;6.45;100.00;96393.88;5071438;28;20033;-62
2022/11/10 05:26:45;;;;;;;4.57;3.03;;;;;;;6.43;100.00;96398.38;5071094;28;20040;-68
2022/11/10 05:29:10;;;;;;;3.30;3.10;;;;;;;6.37;100.00;96398.72;5026276;28;20032;-67
2022/11/10 05:31:36;;;;;;;3.05;2.95;;;;;;;6.37;100.00;96405.75;5071542;28;20517;-68
2022/11/10 05:34:01;;;;;;;4.72;2.97;;;;;;;6.33;100.00;96407.72;5071312;28;20035;-68
2022/11/10 05:36:26;;;;;;;2.90;2.70;;;;;;;6.34;100.00;96413.81;5052574;28;20045;-68
2022/11/10 05:38:52;;;;;;;8.43;2.53;;;;;;;6.37;100.00;96411.81;5071020;28;20045;-68
2022/11/10 05:41:17;;;;;;;2.72;2.60;;;;;;;6.39;100.00;96420.41;5023765;28;20043;-68
2022/11/10 05:43:42;;;;;;;2.85;2.58;;;;;;;6.42;100.00;96422.84;5071055;28;20504;-61
2022/11/10 05:46:08;;;;;;;3.40;2.88;;;;;;;6.44;100.00;96422.72;5070783;28;20397;-63
2022/11/10 05:48:33;;;;;;;3.28;2.88;;;;;;;6.48;100.00;96423.38;5070955;28;20122;-63
2022/11/10 05:50:58;;;;;;;3.05;2.85;;;;;;;6.50;100.00;96422.31;5071100;28;20054;-62
2022/11/10 05:53:24;;;;;;;3.17;2.70;;;;;;;6.55;100.00;96425.50;5070856;28;20405;-63
2022/11/10 05:55:49;;;;;;;5.47;5.03;;;;;;;6.61;100.00;96428.66;5065798;28;20407;-63
2022/11/10 05:58:15;;;;;;;7.25;6.65;;;;;;;6.61;100.00;96431.28;5070516;28;20028;-63
2022/11/10 06:00:40;;;;;;;4.53;4.22;;;;;;;6.63;100.00;96429.41;5070656;28;20700;-63
2022/11/10 06:03:12;;;;;;;4.00;3.80;;;;;;;6.68;100.00;96427.31;5052206;28;20102;-61
2022/11/10 06:05:38;;;;;;;4.05;3.25;;;;;;;6.70;100.00;96430.66;5063974;28;20581;-63
2022/11/10 06:08:05;;;;;;;3.90;3.60;;;;;;;6.65;100.00;96427.50;5070057;28;20107;-62
2022/11/10 06:10:32;;;;;;;5.10;3.92;;;;;;;6.60;100.00;96430.44;5018774;28;20114;-62
2022/11/10 06:12:57;;;;;;;4.55;3.35;;;;;;;6.57;100.00;96435.84;5068085;28;20470;-63
2022/11/10 06:15:23;;;;;;;4.07;3.78;;;;;;;6.54;100.00;96442.16;5070427;28;20063;-63
2022/11/10 06:17:49;;;;;;;4.18;3.80;;;;;;;6.51;100.00;96438.88;5067102;28;20107;-62
2022/11/10 06:20:16;;;;;;;4.35;4.05;;;;;;;6.49;100.00;96443.38;5069703;28;20735;-63
2022/11/10 06:22:42;;;;;;;4.07;3.78;;;;;;;6.49;100.00;96444.19;5035612;28;20484;-62
2022/11/10 06:25:08;;;;;;;3.97;3.50;;;;;;;6.45;100.00;96446.19;5070439;28;20524;-68
2022/11/10 06:27:34;;;;;;;4.55;4.25;;;;;;;6.40;100.00;96435.16;5068214;28;20028;-68
2022/11/10 06:30:00;;;;;;;8.77;4.28;;;;;;;6.37;100.00;96445.00;5064731;28;20036;-68
2022/11/10 06:32:25;;;;;;;3.67;3.42;;;;;;;6.38;100.00;96447.50;5068648;28;20107;-67
2022/11/10 06:34:50;;;;;;;5.32;4.05;;;;;;;6.37;100.00;96448.44;5068818;28;20052;-68
2022/11/10 06:37:16;;;;;;;6.32;4.07;;;;;;;6.34;100.00;96447.81;5050341;28;20025;-67
2022/11/10 06:39:41;;;;;;;3.78;3.58;;;;;;;6.30;100.00;96455.00;5034535;28;20045;-68
2022/11/10 06:42:06;;;;;;;4.43;4.18;;;;;;;6.34;100.00;96466.13;5068269;28;20044;-62
2022/11/10 06:44:32;;;;;;;5.55;4.22;;;;;;;6.39;100.00;96472.72;5068298;28;20131;-68
2022/11/10 06:46:57;;;;;;;5.03;4.53;;;;;;;6.46;100.00;96481.00;5060994;28;20112;-65
2022/11/10 06:49:22;;;;;;;4.72;4.32;;;;;;;6.55;100.00;96485.69;5067405;28;20410;-67
2022/11/10 06:51:48;;;;;;;5.05;4.53;;;;;;;6.56;100.00;96487.38;5048606;28;20078;-67
2022/11/10 06:54:13;;;;;;;4.80;4.40;;;;;;;6.61;100.00;96491.47;5068921;28;20120;-65
2022/11/10 06:56:38;;;;;;;10.50;9.65;;;;;;;6.64;100.00;96494.72;5068564;28;20033;-65
2022/11/10 06:59:04;;;;;;;12.07;11.05;;;;;;;6.67;100.00;96497.16;5069612;28;20115;-66
2022/11/10 07:01:29;;;;;;;14.20;13.18;;;;;;;6.72;100.00;96502.91;5069656;28;20490;-65
2022/11/10 07:03:55;;;;;;;8.50;7.90;;;;;;;6.74;100.00;96500.19;5056889;28;20048;-61
2022/11/10 07:06:20;;;;;;;6.18;5.63;;;;;;;6.73;100.00;96498.50;5069346;28;20032;-61
2022/11/10 07:08:47;;;;;;;5.82;5.32;;;;;;;6.73;100.00;96501.13;5068824;28;20032;-61
2022/11/10 07:11:12;;;;;;;6.40;5.70;;;;;;;6.74;100.00;96508.03;5064973;28;20024;-61
2022/11/10 07:13:38;;;;;;;6.00;5.50;;;;;;;6.79;100.00;96507.75;5068139;28;20067;-61
2022/11/10 07:16:07;;;;;;;5.22;4.82;;;;;;;6.79;100.00;96511.22;5067644;28;20036;-61
2022/11/10 07:18:34;;;;;;;5.68;5.18;;;;;;;6.81;100.00;96514.56;5068053;28;20409;-57
2022/11/10 07:21:04;;;;;;;6.90;6.00;;;;;;;6.81;100.00;96517.19;5051200;28;20040;-55
2022/11/10 07:23:30;;;;;;;6.18;5.68;;;;;;;6.80;100.00;96519.91;5069457;28;20039;-63
2022/11/10 07:25:58;;;;;;;5.70;5.07;;;;;;;6.79;100.00;96529.53;5068196;28;20036;-62
2022/11/10 07:28:23;;;;;;;7.00;6.40;;;;;;;6.84;100.00;96540.56;5063446;28;20043;-62
2022/11/10 07:30:48;;;;;;;7.47;6.80;;;;;;;6.89;100.00;96548.13;5069312;28;20024;-63
2022/11/10 07:33:14;;;;;;;8.82;7.97;;;;;;;7.00;100.00;96547.44;5069211;28;20024;-62
2022/11/10 07:35:40;;;;;;;8.32;7.53;;;;;;;7.07;100.00;96553.94;5069940;28;20043;-63
2022/11/10 07:38:13;;;;;;;9.20;7.53;;;;;;;7.11;100.00;96559.84;5069196;28;20032;-64
2022/11/10 07:40:39;;;;;;;7.93;7.18;;;;;;;6.99;100.00;96558.84;5068832;28;20412;-62
2022/11/10 07:43:04;;;;;;;8.77;7.05;;;;;;;6.93;100.00;96564.44;5069360;28;20111;-64
2022/11/10 07:45:31;;;;;;;8.23;7.00;;;;;;;6.81;100.00;96564.31;5069364;28;20040;-64
2022/11/10 07:48:04;;;;;;;7.43;6.65;;;;;;;6.80;100.00;96570.47;5069264;28;20072;-64
2022/11/10 07:50:30;;;;;;;7.53;6.93;;;;;;;6.74;100.00;96574.31;5069056;28;20524;-64
2022/11/10 07:53:07;;;;;;;9.82;8.93;;;;;;;6.72;100.00;96576.19;5069363;28;20044;-65
2022/11/10 07:55:33;;;;;;;9.00;8.05;;;;;;;6.67;100.00;96570.41;5069048;28;20043;-64
2022/11/10 07:57:59;;;;;;;9.27;8.38;;;;;;;6.70;100.00;96571.97;5068604;28;20044;-65
2022/11/10 08:00:25;;;;;;;9.38;8.32;;;;;;;6.73;100.00;96572.63;5069141;28;20032;-64
2022/11/10 08:02:51;;;;;;;9.23;8.30;;;;;;;6.70;100.00;96571.97;5051247;28;20050;-56
2022/11/10 08:05:16;;;;;;;8.90;8.05;;;;;;;6.69;100.00;96573.78;5069476;28;20151;-55
2022/11/10 08:07:42;;;;;;;9.27;8.38;;;;;;;6.69;100.00;96576.38;5068926;28;20036;-57
2022/11/10 08:10:08;;;;;;;9.57;8.70;;;;;;;6.70;100.00;96579.84;5069497;28;20025;-56
2022/11/10 08:12:33;;;;;;;10.57;9.57;;;;;;;6.70;100.00;96579.84;5069001;28;20044;-56
2022/11/10 08:14:59;;;;;;;10.13;8.57;;;;;;;6.76;100.00;96581.22;5069092;28;20047;-56
2022/11/10 08:17:24;;;;;;;11.35;7.85;;;;;;;6.79;100.00;96579.28;5068555;28;20032;-63
2022/11/10 08:19:49;;;;;;;7.90;7.20;;;;;;;6.85;100.00;96567.56;5069154;28;20028;-61
2022/11/10 08:22:15;;;;;;;8.60;7.72;;;;;;;6.91;100.00;96574.19;5068818;28;20181;-64
2022/11/10 08:24:41;;;;;;;6.90;5.93;;;;;;;7.02;100.00;96579.59;5069310;28;20110;-65
2022/11/10 08:27:06;;;;;;;7.57;6.88;;;;;;;7.14;100.00;96573.53;5069381;28;20107;-64
2022/11/10 08:29:31;;;;;;;6.40;5.93;;;;;;;7.25;100.00;96572.84;5068428;28;20047;-64
2022/11/10 08:31:57;;;;;;;8.00;5.93;;;;;;;7.36;100.00;96574.78;5068803;28;20451;-64
2022/11/10 08:34:22;;;;;;;5.88;5.38;;;;;;;7.52;100.00;96572.00;5051163;28;20036;-65
2022/11/10 08:36:51;;;;;;;5.68;5.28;;;;;;;7.69;100.00;96570.88;5050842;28;20571;-64
2022/11/10 08:39:16;;;;;;;4.53;4.22;;;;;;;7.81;100.00;96574.47;5005118;28;20033;-64
2022/11/10 08:41:41;;;;;;;8.07;4.50;;;;;;;7.89;100.00;96573.94;5068877;28;20040;-60
2022/11/10 08:44:07;;;;;;;4.28;3.97;;;;;;;8.08;100.00;96578.78;5068923;28;20029;-60
2022/11/10 08:46:32;;;;;;;2.90;2.75;;;;;;;8.25;100.00;96580.25;5037559;28;20483;-60
2022/11/10 08:48:57;;;;;;;8.93;3.60;;;;;;;8.44;100.00;96577.19;5068785;28;20379;-60
2022/11/10 08:51:23;;;;;;;5.50;3.35;;;;;;;8.60;100.00;96579.63;5068834;28;20412;-60
2022/11/10 08:53:48;;;;;;;4.82;3.08;;;;;;;8.70;100.00;96571.94;5071344;28;20051;-60
2022/11/10 08:56:13;;;;;;;4.75;2.70;;;;;;;8.85;100.00;96564.75;5072712;28;20032;-65
2022/11/10 08:58:39;;;;;;;3.30;3.10;;;;;;;8.85;100.00;96566.53;5072724;28;20028;-55
2022/11/10 09:01:11;;;;;;;3.40;3.17;;;;;;;8.94;100.00;96570.28;5072571;28;20044;-56
2022/11/10 09:03:36;;;;;;;4.30;4.00;;;;;;;8.98;100.00;96574.38;5067088;28;20028;-57
2022/11/10 09:06:02;;;;;;;5.22;4.50;;;;;;;8.94;100.00;96580.78;5071569;28;20028;-56
2022/11/10 09:08:29;;;;;;;5.13;4.72;;;;;;;8.91;100.00;96584.47;5072309;28;20086;-56
2022/11/10 09:10:54;;;;;;;5.13;4.68;;;;;;;8.93;100.00;96577.31;5072350;28;20109;-56
2022/11/10 09:13:20;;;;;;;5.97;4.85;;;;;;;9.08;100.00;96583.25;5072120;28;20501;-58
2022/11/10 09:15:46;;;;;;;5.03;4.32;;;;;;;9.08;100.00;96591.13;5072099;28;20119;-65
2022/11/10 09:18:13;;;;;;;5.10;4.70;;;;;;;9.14;100.00;96592.50;5071960;28;20032;-63
2022/11/10 09:20:38;;;;;;;4.82;4.53;;;;;;;9.13;100.00;96591.63;5071688;28;20043;-63
2022/11/10 09:23:15;;;;;;;5.00;4.53;;;;;;;9.17;100.00;96602.78;5071172;28;20050;-63
2022/11/10 09:25:42;;;;;;;6.60;4.75;;;;;;;9.12;100.00;96607.53;5071904;28;20309;-64
2022/11/10 09:28:12;;;;;;;5.13;3.95;;;;;;;9.08;100.00;96611.34;5072000;28;20037;-64
2022/11/10 09:30:38;;;;;;;5.35;4.25;;;;;;;9.08;100.00;96613.97;5071965;28;20032;-63
2022/11/10 09:33:04;;;;;;;4.47;4.15;;;;;;;9.06;100.00;96614.06;5071968;28;20028;-63
2022/11/10 09:35:29;;;;;;;5.35;4.95;;;;;;;9.09;100.00;96616.47;5072127;28;20032;-57
2022/11/10 09:37:55;;;;;;;4.95;4.55;;;;;;;9.20;100.00;96614.88;5071549;28;20519;-66
2022/11/10 09:40:47;;;;;;;5.88;4.60;;;;;;;9.25;100.00;96618.81;5071890;28;20047;-66
2022/11/10 09:43:22;;;;;;;4.40;3.97;;;;;;;9.34;100.00;96617.31;5059146;28;20060;-66
2022/11/10 09:45:50;;;;;;;5.10;4.70;;;;;;;9.39;100.00;96617.81;5071891;28;20036;-66
2022/11/10 09:48:24;;;;;;;4.82;4.30;;;;;;;9.50;100.00;96621.47;5071950;28;20498;-66
2022/11/10 09:50:55;;;;;;;5.50;4.43;;;;;;;9.56;100.00;96626.25;5071414;28;20037;-66
2022/11/10 09:53:33;;;;;;;8.40;4.53;;;;;;;9.67;100.00;96628.94;5071215;28;20520;-62
2022/11/10 09:56:02;;;;;;;4.88;4.53;;;;;;;9.79;100.00;96634.25;5071554;28;20036;-64
2022/11/10 09:58:41;;;;;;;4.32;4.03;;;;;;;9.96;100.00;96625.94;5071100;28;20478;-65
2022/11/10 10:01:24;;;;;;;4.25;3.95;;;;;;;10.09;100.00;96635.56;5071682;28;20424;-64
2022/11/10 10:04:37;;;;;;;4.45;3.60;;;;;;;10.18;100.00;96638.31;5070841;28;20506;-65
2022/11/10 10:07:12;;;;;;;6.88;3.67;;;;;;;10.41;100.00;96645.44;5067404;28;20040;-64
2022/11/10 10:09:43;;;;;;;4.20;3.90;;;;;;;10.31;100.00;96646.13;5064634;28;20036;-65
2022/11/10 10:12:43;;;;;;;5.93;3.55;;;;;;;10.31;100.00;96640.00;5061597;28;20498;-54
2022/11/10 10:15:27;;;;;;;4.35;3.47;;;;;;;10.29;100.00;96640.16;5071021;28;20032;-56
2022/11/10 10:18:15;;;;;;;3.75;3.20;;;;;;;10.27;100.00;96649.91;5070873;28;20028;-58
2022/11/10 10:20:59;;;;;;;3.50;3.30;;;;;;;10.20;100.00;96645.25;5070855;28;20036;-56
2022/11/10 10:23:49;;;;;;;3.20;3.00;;;;;;;10.19;100.00;96641.78;5070737;28;20159;-58
2022/11/10 10:26:17;;;;;;;3.85;3.17;;;;;;;10.13;100.00;96637.00;5058318;28;20040;-57
2022/11/10 10:28:47;;;;;;;3.50;3.20;;;;;;;10.20;100.00;96635.56;5070379;28;20658;-58
2022/11/10 10:31:34;;;;;;;3.47;3.25;;;;;;;10.15;100.00;96641.16;5070905;28;20155;-62
2022/11/10 10:34:00;;;;;;;2.95;2.75;;;;;;;10.15;100.00;96640.34;5069806;28;20032;-63
2022/11/10 10:36:29;;;;;;;2.72;2.53;;;;;;;10.06;100.00;96641.88;5070190;28;20036;-62
2022/11/10 10:39:10;;;;;;;3.03;2.80;;;;;;;10.03;100.00;96645.56;5070335;28;20029;-63
2022/11/10 10:41:35;;;;;;;3.65;3.28;;;;;;;10.06;100.00;96647.13;5070458;28;20107;-63
2022/11/10 10:44:08;;;;;;;2.75;2.60;;;;;;;10.15;100.00;96658.75;5057095;28;20116;-62
2022/11/10 10:46:46;;;;;;;4.13;3.30;;;;;;;10.24;100.00;96651.97;5070006;28;20029;-62
2022/11/10 10:49:18;;;;;;;3.15;2.95;;;;;;;10.31;100.00;96656.66;5069996;28;20036;-62
2022/11/10 10:51:44;;;;;;;3.72;3.53;;;;;;;10.42;100.00;96655.00;5069819;28;20589;-53
2022/11/10 10:54:30;;;;;;;2.88;2.67;;;;;;;10.47;100.00;96655.50;5069816;28;20036;-66
2022/11/10 10:57:01;;;;;;;;;;;;;;;10.50;100.00;96652.66;5070138;28;20049;-66
2022/11/10 10:59:27;;;;;;;3.88;2.80;;;;;;;10.57;100.00;96653.84;5070277;28;19909;-67
2022/11/10 11:01:54;;;;;;;2.72;2.55;;;;;;;10.60;100.00;96648.34;5070233;28;20059;-66
2022/11/10 11:04:36;;;;;;;3.10;2.97;;;;;;;10.68;100.00;96653.00;5070786;28;20045;-66
2022/11/10 11:07:18;;;;;;;3.03;2.75;;;;;;;10.84;100.00;96652.66;5070137;28;20036;-67
2022/11/10 11:09:44;;;;;;;4.32;3.10;;;;;;;11.02;100.00;96652.16;5066105;28;20032;-62
2022/11/10 11:12:19;;;;;;;3.60;3.30;;;;;;;11.21;100.00;96656.00;5069966;28;20405;-64
2022/11/10 11:14:44;;;;;;;3.08;2.80;;;;;;;11.27;100.00;96647.59;5069163;28;20037;-53
2022/11/10 11:17:20;;;;;;;2.97;2.78;;;;;;;11.26;100.00;96648.53;5069613;28;20025;-50
2022/11/10 11:19:47;;;;;;;2.50;2.40;;;;;;;11.32;100.00;96643.63;5068664;28;20405;-55
2022/11/10 11:22:18;;;;;;;3.00;2.70;;;;;;;11.48;100.00;96649.47;5069595;28;20032;-54
2022/11/10 11:25:09;;;;;;;3.40;3.13;;;;;;;11.59;100.00;96641.50;5069629;28;20072;-53
2022/11/10 11:27:38;;;;;;;2.70;2.50;;;;;;;11.64;100.00;96643.78;5069357;28;20034;-56
2022/11/10 11:30:05;;;;;;;3.55;2.80;;;;;;;11.54;100.00;96641.03;5069833;28;20041;-61
2022/11/10 11:33:08;;;;;;;2.72;2.53;;;;;;;11.59;100.00;96631.78;5069537;28;20035;-58
2022/11/10 11:35:52;;;;;;;2.85;2.55;;;;;;;11.66;100.00;96629.50;5068823;28;20117;-61
2022/11/10 11:38:56;;;;;;;2.13;2.03;;;;;;;11.58;100.00;96631.91;5068949;28;20534;-61
2022/11/10 11:41:57;;;;;;;2.10;2.00;;;;;;;11.57;100.00;96630.25;5060604;28;20047;-60
2022/11/10 11:44:36;;;;;;;2.40;2.30;;;;;;;11.61;100.00;96634.31;5069468;28;20086;-60
2022/11/10 11:47:16;;;;;;;2.40;2.20;;;;;;;11.60;100.00;96633.47;5069389;28;20034;-61
2022/11/10 11:49:46;;;;;;;1.98;1.88;;;;;;;11.68;99.87;96627.56;5057842;28;20510;-66
2022/11/10 11:52:34;;;;;;;1.98;1.88;;;;;;;11.72;97.22;96623.72;5069004;28;20413;-60
2022/11/10 11:55:36;;;;;;;1.95;1.85;;;;;;;11.82;97.13;96633.50;5066857;28;20036;-58
2022/11/10 11:58:37;;;;;;;2.40;2.20;;;;;;;12.00;99.87;96621.41;5068939;28;20052;-58